Time;durP1;ratioP1;P1;durP2;ratioP2;P2;SDS_P1;SDS_P2;PMS_P1;PMS_P2;Temp;Humidity;BMP_temperature;BMP_pressure;BME280_temperature;BME280_humidity;BME280_pressure;Samples;Min_cycle;Max_cycle;Signal;HPM_P1;HPM_P2
2022/12/28 00:01:29;;;;;;;6.60;3.33;;;;;;;;;;5053157;28;20055;-62
2022/12/28 00:03:55;;;;;;;12.70;3.95;;;;;;;;;;5063686;22;20052;-61
2022/12/28 00:06:22;;;;;;;13.43;4.65;;;;;;;;;;5054946;28;20063;-61
2022/12/28 00:08:49;;;;;;;9.35;4.22;;;;;;;;;;5073535;28;20049;-61
2022/12/28 00:11:16;;;;;;;13.25;4.70;;;;;;;;;;5072432;28;20048;-62
2022/12/28 00:13:42;;;;;;;14.57;5.28;;;;;;;;;;5072225;28;20083;-62
2022/12/28 00:16:09;;;;;;;13.38;4.28;;;;;;;;;;5062095;28;20489;-62
2022/12/28 00:18:36;;;;;;;12.23;4.22;;;;;;;;;;5071748;28;20044;-61
2022/12/28 00:21:02;;;;;;;12.48;4.22;;;;;;;;;;5054268;28;20094;-62
2022/12/28 00:23:28;;;;;;;11.27;4.03;;;;;;;;;;5072671;28;20512;-62
2022/12/28 00:25:54;;;;;;;14.38;6.13;;;;;;;;;;5071259;28;20056;-61
2022/12/28 00:28:20;;;;;;;12.50;3.80;;;;;;;;;;5070972;28;20048;-61
2022/12/28 00:30:46;;;;;;;14.73;5.10;;;;;;;;;;5066689;28;20090;-61
2022/12/28 00:33:12;;;;;;;17.77;5.80;;;;;;;;;;5068231;28;20048;-61
2022/12/28 00:35:38;;;;;;;8.85;4.45;;;;;;;;;;5052291;28;20079;-61
2022/12/28 00:38:04;;;;;;;16.75;4.82;;;;;;;;;;5070865;28;20171;-61
2022/12/28 00:40:30;;;;;;;18.30;5.80;;;;;;;;;;5071693;28;20496;-63
2022/12/28 00:42:56;;;;;;;12.75;5.05;;;;;;;;;;5052960;28;20067;-61
2022/12/28 00:45:22;;;;;;;10.65;4.25;;;;;;;;;;5071575;28;20036;-61
2022/12/28 00:47:48;;;;;;;10.80;4.07;;;;;;;;;;5053207;28;20048;-61
2022/12/28 00:50:14;;;;;;;11.07;4.45;;;;;;;;;;5071083;28;20048;-61
2022/12/28 00:52:40;;;;;;;9.85;4.15;;;;;;;;;;5070511;28;20049;-61
2022/12/28 00:55:06;;;;;;;8.18;4.45;;;;;;;;;;5053778;28;20045;-61
2022/12/28 00:57:33;;;;;;;14.57;5.60;;;;;;;;;;5057728;28;20141;-62
2022/12/28 00:59:59;;;;;;;10.98;4.50;;;;;;;;;;5070848;28;20052;-61
2022/12/28 01:02:25;;;;;;;10.90;3.95;;;;;;;;;;5069410;28;20040;-61
2022/12/28 01:04:51;;;;;;;17.58;4.40;;;;;;;;;;5052684;28;20417;-61
2022/12/28 01:07:17;;;;;;;13.38;4.35;;;;;;;;;;5069630;28;20552;-61
2022/12/28 01:09:43;;;;;;;12.77;4.30;;;;;;;;;;5072218;28;20079;-62
2022/12/28 01:12:09;;;;;;;12.18;5.35;;;;;;;;;;5071504;28;20063;-62
2022/12/28 01:14:35;;;;;;;13.70;6.32;;;;;;;;;;5065303;28;20500;-61
2022/12/28 01:17:01;;;;;;;7.40;4.43;;;;;;;;;;5070300;28;20049;-61
2022/12/28 01:19:27;;;;;;;17.17;5.25;;;;;;;;;;5051040;28;20045;-61
2022/12/28 01:21:53;;;;;;;13.75;6.10;;;;;;;;;;5071563;28;20067;-61
2022/12/28 01:24:19;;;;;;;6.40;3.70;;;;;;;;;;5053826;28;20080;-62
2022/12/28 01:26:45;;;;;;;10.23;5.80;;;;;;;;;;5053260;28;20412;-62
2022/12/28 01:29:11;;;;;;;16.02;5.13;;;;;;;;;;5071232;28;20123;-61
2022/12/28 01:31:37;;;;;;;13.55;5.57;;;;;;;;;;5068472;28;20045;-62
2022/12/28 01:34:03;;;;;;;11.82;5.22;;;;;;;;;;5063549;28;20045;-61
2022/12/28 01:36:31;;;;;;;11.15;6.30;;;;;;;;;;5069756;28;20044;-62
2022/12/28 01:38:58;;;;;;;10.52;4.80;;;;;;;;;;5052640;28;20049;-61
2022/12/28 01:41:25;;;;;;;8.50;4.60;;;;;;;;;;5071790;28;20497;-61
2022/12/28 01:43:51;;;;;;;9.68;5.00;;;;;;;;;;5069316;28;20044;-61
2022/12/28 01:46:18;;;;;;;15.15;4.00;;;;;;;;;;5070124;28;20045;-61
2022/12/28 01:48:50;;;;;;;9.50;4.10;;;;;;;;;;5071144;28;20080;-62
2022/12/28 01:51:17;;;;;;;8.73;3.95;;;;;;;;;;5069871;28;20086;-61
2022/12/28 01:53:43;;;;;;;9.88;5.22;;;;;;;;;;5050490;28;20041;-63
2022/12/28 01:56:10;;;;;;;9.57;5.07;;;;;;;;;;5053226;28;20044;-61
2022/12/28 01:58:36;;;;;;;9.32;4.57;;;;;;;;;;5071204;28;20125;-60
2022/12/28 02:01:02;;;;;;;11.45;4.50;;;;;;;;;;5069391;28;20091;-61
2022/12/28 02:03:30;;;;;;;8.10;4.00;;;;;;;;;;5069079;28;20040;-60
2022/12/28 02:05:58;;;;;;;6.60;3.58;;;;;;;;;;5052966;28;20060;-61
2022/12/28 02:08:30;;;;;;;6.80;4.40;;;;;;;;;;5053463;28;20048;-61
2022/12/28 02:10:57;;;;;;;12.07;5.68;;;;;;;;;;5071364;28;20049;-61
2022/12/28 02:13:24;;;;;;;5.88;3.55;;;;;;;;;;5052978;28;20400;-61
2022/12/28 02:15:50;;;;;;;8.65;4.68;;;;;;;;;;5069605;28;20048;-62
2022/12/28 02:18:17;;;;;;;7.72;4.57;;;;;;;;;;5067005;28;20123;-63
2022/12/28 02:21:03;;;;;;;8.48;3.85;;;;;;;;;;5053126;28;20136;-61
2022/12/28 02:23:35;;;;;;;8.35;4.22;;;;;;;;;;4991150;28;20048;-61
2022/12/28 02:26:13;;;;;;;11.68;6.13;;;;;;;;;;5068877;28;20059;-61
2022/12/28 02:28:48;;;;;;;10.05;5.35;;;;;;;;;;5074998;28;20049;-64
2022/12/28 02:31:20;;;;;;;9.18;5.05;;;;;;;;;;5073690;28;20049;-61
2022/12/28 02:34:09;;;;;;;15.70;5.18;;;;;;;;;;5048108;28;20416;-61
2022/12/28 02:36:39;;;;;;;9.20;4.60;;;;;;;;;;5073191;28;20041;-60
2022/12/28 02:39:08;;;;;;;13.77;6.18;;;;;;;;;;5074764;28;20098;-61
2022/12/28 02:41:35;;;;;;;14.07;6.68;;;;;;;;;;5055096;28;21391;-61
2022/12/28 02:44:01;;;;;;;9.95;5.47;;;;;;;;;;5056146;28;20044;-61
2022/12/28 02:52:19;;;;;;;12.90;7.22;;;;;;;;;;5073114;28;20049;-61
2022/12/28 02:57:39;;;;;;;11.93;5.30;;;;;;;;;;5073870;28;20120;-60
2022/12/28 03:00:08;;;;;;;17.80;8.55;;;;;;;;;;5055230;28;20041;-61
2022/12/28 03:02:40;;;;;;;12.38;6.75;;;;;;;;;;5073704;28;20063;-60
2022/12/28 03:05:15;;;;;;;15.00;6.65;;;;;;;;;;5062933;28;20052;-60
2022/12/28 03:08:18;;;;;;;12.50;8.10;;;;;;;;;;5070300;28;20056;-61
2022/12/28 03:11:00;;;;;;;13.90;8.07;;;;;;;;;;5054780;28;20132;-61
2022/12/28 03:13:44;;;;;;;13.65;6.65;;;;;;;;;;5066529;28;20041;-61
2022/12/28 03:16:19;;;;;;;11.35;7.28;;;;;;;;;;5038526;28;20056;-61
2022/12/28 03:32:38;;;;;;;15.93;8.93;;;;;;;;;;5089629;28;20048;-61
2022/12/28 03:35:04;;;;;;;14.57;9.00;;;;;;;;;;5085849;28;20097;-60
2022/12/28 03:37:46;;;;;;;11.20;7.35;;;;;;;;;;5118615;22;20106;-61
2022/12/28 03:40:17;;;;;;;17.63;9.65;;;;;;;;;;5038122;22;1093796;-61
2022/12/28 03:45:36;;;;;;;14.43;9.32;;;;;;;;;;5044320;28;20056;-60
2022/12/28 03:48:03;;;;;;;9.65;6.47;;;;;;;;;;5052913;28;20044;-61
2022/12/28 03:50:29;;;;;;;14.73;8.30;;;;;;;;;;5073795;28;20124;-61
2022/12/28 03:52:57;;;;;;;13.18;9.23;;;;;;;;;;5073334;28;20449;-61
2022/12/28 03:55:23;;;;;;;12.90;9.48;;;;;;;;;;5073511;28;20036;-61
2022/12/28 03:57:49;;;;;;;17.48;9.10;;;;;;;;;;5053657;28;20044;-61
2022/12/28 04:00:15;;;;;;;20.98;11.70;;;;;;;;;;5073570;28;20105;-61
2022/12/28 04:02:42;;;;;;;14.90;9.55;;;;;;;;;;5074523;28;20412;-61
2022/12/28 04:05:08;;;;;;;13.32;8.13;;;;;;;;;;5060167;28;20052;-61
2022/12/28 04:07:34;;;;;;;16.85;10.65;;;;;;;;;;5074175;28;20528;-61
2022/12/28 04:10:00;;;;;;;17.10;13.07;;;;;;;;;;5072942;28;20093;-61
2022/12/28 04:12:26;;;;;;;17.85;11.55;;;;;;;;;;5074781;28;20043;-61
2022/12/28 04:14:52;;;;;;;16.77;10.63;;;;;;;;;;5048991;28;20036;-61
2022/12/28 04:17:18;;;;;;;17.63;11.73;;;;;;;;;;5069911;28;20070;-61
2022/12/28 04:19:44;;;;;;;18.73;12.43;;;;;;;;;;5073331;28;20404;-60
2022/12/28 04:22:10;;;;;;;17.10;10.32;;;;;;;;;;5072907;28;20052;-61
2022/12/28 04:24:36;;;;;;;22.70;13.45;;;;;;;;;;5082003;28;20144;-60
2022/12/28 04:27:02;;;;;;;21.35;13.07;;;;;;;;;;5088711;28;20465;-60
2022/12/28 04:29:28;;;;;;;19.83;13.73;;;;;;;;;;5062619;28;20043;-60
2022/12/28 04:31:54;;;;;;;23.58;12.10;;;;;;;;;;5083663;28;20048;-62
2022/12/28 04:34:20;;;;;;;22.60;15.55;;;;;;;;;;5077769;28;20033;-61
2022/12/28 04:36:46;;;;;;;23.77;14.57;;;;;;;;;;5076208;28;20455;-60
2022/12/28 04:39:12;;;;;;;19.10;12.85;;;;;;;;;;5075850;28;20079;-60
2022/12/28 04:41:39;;;;;;;19.75;12.63;;;;;;;;;;5092662;28;20052;-60
2022/12/28 04:44:05;;;;;;;24.95;15.75;;;;;;;;;;5086603;28;20487;-60
2022/12/28 04:46:31;;;;;;;20.95;14.15;;;;;;;;;;5069956;28;20045;-60
2022/12/28 04:48:57;;;;;;;19.20;12.55;;;;;;;;;;5071893;28;20040;-60
2022/12/28 04:51:24;;;;;;;22.13;13.57;;;;;;;;;;5087427;28;20089;-60
2022/12/28 04:53:51;;;;;;;12.57;8.70;;;;;;;;;;5069314;28;20096;-60
2022/12/28 04:56:18;;;;;;;23.75;14.52;;;;;;;;;;5071802;28;20484;-60
2022/12/28 04:58:48;;;;;;;23.13;13.60;;;;;;;;;;5075055;28;20099;-60
2022/12/28 05:01:16;;;;;;;21.83;14.98;;;;;;;;;;5093168;28;20052;-60
2022/12/28 05:03:43;;;;;;;24.67;14.05;;;;;;;;;;5085662;28;20044;-60
2022/12/28 05:06:13;;;;;;;22.63;14.50;;;;;;;;;;5071139;28;20489;-59
2022/12/28 05:08:39;;;;;;;19.50;12.32;;;;;;;;;;5078838;28;20102;-62
2022/12/28 05:11:07;;;;;;;22.27;14.85;;;;;;;;;;5092656;28;20051;-60
2022/12/28 05:13:33;;;;;;;20.42;14.13;;;;;;;;;;5077439;28;20059;-60
2022/12/28 05:16:04;;;;;;;20.92;15.68;;;;;;;;;;5054502;28;20499;-60
2022/12/28 05:18:30;;;;;;;22.38;15.52;;;;;;;;;;5066531;28;20063;-60
2022/12/28 05:21:10;;;;;;;21.92;13.40;;;;;;;;;;5057578;28;20054;-60
2022/12/28 05:23:37;;;;;;;18.23;13.05;;;;;;;;;;5078449;28;20040;-60
2022/12/28 05:26:05;;;;;;;18.95;11.65;;;;;;;;;;5070419;28;20055;-60
2022/12/28 05:28:31;;;;;;;22.90;14.07;;;;;;;;;;5081462;28;20044;-60
2022/12/28 05:31:01;;;;;;;22.60;14.18;;;;;;;;;;5067924;28;20052;-60
2022/12/28 05:33:31;;;;;;;20.52;13.85;;;;;;;;;;5079929;28;20097;-60
2022/12/28 05:36:11;;;;;;;18.15;12.65;;;;;;;;;;5054291;28;20044;-60
2022/12/28 05:38:38;;;;;;;19.95;13.90;;;;;;;;;;5044153;28;20051;-60
2022/12/28 05:41:08;;;;;;;20.80;15.32;;;;;;;;;;5086375;28;20063;-60
2022/12/28 05:43:34;;;;;;;21.08;13.93;;;;;;;;;;5076290;28;20067;-61
2022/12/28 05:46:02;;;;;;;20.27;13.23;;;;;;;;;;5068614;28;20048;-60
2022/12/28 05:48:30;;;;;;;18.45;12.18;;;;;;;;;;5079309;28;20055;-60
2022/12/28 05:50:58;;;;;;;22.58;13.55;;;;;;;;;;5054395;28;20053;-60
2022/12/28 05:53:24;;;;;;;17.30;10.73;;;;;;;;;;5070967;28;20121;-60
2022/12/28 05:55:50;;;;;;;20.55;14.93;;;;;;;;;;5084198;28;20117;-60
2022/12/28 05:58:16;;;;;;;13.25;9.80;;;;;;;;;;5081617;28;20443;-60
2022/12/28 06:00:42;;;;;;;21.70;14.10;;;;;;;;;;5054018;28;20048;-60
2022/12/28 06:03:08;;;;;;;21.25;12.10;;;;;;;;;;5088935;28;20036;-60
2022/12/28 06:05:34;;;;;;;12.00;7.65;;;;;;;;;;5057431;28;20409;-60
2022/12/28 06:08:00;;;;;;;16.80;12.02;;;;;;;;;;5076087;28;20127;-60
2022/12/28 06:10:26;;;;;;;15.85;8.38;;;;;;;;;;5083092;28;20139;-60
2022/12/28 06:12:52;;;;;;;11.15;8.43;;;;;;;;;;5085403;28;20067;-60
2022/12/28 06:15:18;;;;;;;22.58;13.57;;;;;;;;;;5059538;28;20421;-60
2022/12/28 06:17:44;;;;;;;14.15;10.43;;;;;;;;;;5063907;28;20047;-60
2022/12/28 06:20:10;;;;;;;12.48;8.13;;;;;;;;;;5054590;28;20123;-60
2022/12/28 06:22:36;;;;;;;17.27;11.00;;;;;;;;;;5084651;28;20106;-60
2022/12/28 06:25:02;;;;;;;15.75;9.02;;;;;;;;;;5062727;28;20099;-61
2022/12/28 06:27:28;;;;;;;15.90;11.77;;;;;;;;;;5083465;28;20447;-61
2022/12/28 06:29:54;;;;;;;15.63;8.93;;;;;;;;;;5076705;28;20105;-60
2022/12/28 06:32:21;;;;;;;13.13;10.88;;;;;;;;;;5071659;28;20093;-60
2022/12/28 06:34:47;;;;;;;19.38;12.00;;;;;;;;;;5072114;28;20052;-60
2022/12/28 06:37:13;;;;;;;14.70;10.85;;;;;;;;;;5069826;28;20053;-61
2022/12/28 06:39:39;;;;;;;13.43;10.30;;;;;;;;;;5057676;28;20063;-61
2022/12/28 06:42:05;;;;;;;7.97;6.03;;;;;;;;;;5075807;28;20052;-61
2022/12/28 06:44:31;;;;;;;17.88;11.25;;;;;;;;;;5125727;22;20197;-60
2022/12/28 06:46:57;;;;;;;14.05;10.93;;;;;;;;;;5099372;28;20123;-60
2022/12/28 06:49:23;;;;;;;18.10;10.80;;;;;;;;;;5073680;28;20063;-60
2022/12/28 06:51:49;;;;;;;18.48;11.45;;;;;;;;;;5090132;28;20040;-60
2022/12/28 06:54:15;;;;;;;11.75;8.55;;;;;;;;;;5089613;28;20040;-60
2022/12/28 06:56:41;;;;;;;18.98;13.18;;;;;;;;;;5091177;28;20403;-60
2022/12/28 06:59:07;;;;;;;18.77;11.60;;;;;;;;;;5071410;28;20510;-61
2022/12/28 07:01:35;;;;;;;13.52;9.80;;;;;;;;;;5079146;28;20803;-61
2022/12/28 07:04:02;;;;;;;15.75;10.55;;;;;;;;;;5080223;28;20051;-61
2022/12/28 07:06:29;;;;;;;16.45;11.25;;;;;;;;;;5091216;28;20090;-61
2022/12/28 07:08:59;;;;;;;20.73;12.90;;;;;;;;;;5090864;28;20522;-60
2022/12/28 07:11:25;;;;;;;13.35;10.25;;;;;;;;;;5094891;28;20044;-61
2022/12/28 07:13:51;;;;;;;13.18;9.30;;;;;;;;;;5093936;28;20118;-60
2022/12/28 07:16:19;;;;;;;16.58;11.55;;;;;;;;;;5095024;28;20071;-60
2022/12/28 07:18:45;;;;;;;15.85;10.70;;;;;;;;;;5076526;28;20055;-60
2022/12/28 07:21:13;;;;;;;16.38;13.30;;;;;;;;;;5100409;28;20392;-61
2022/12/28 07:23:39;;;;;;;11.88;8.40;;;;;;;;;;5091248;28;20047;-63
2022/12/28 07:26:09;;;;;;;19.63;13.32;;;;;;;;;;5094482;28;20435;-60
2022/12/28 07:28:37;;;;;;;17.85;12.15;;;;;;;;;;5093553;28;20088;-61
2022/12/28 07:31:07;;;;;;;17.38;8.35;;;;;;;;;;5096708;28;20036;-61
2022/12/28 07:33:34;;;;;;;19.10;9.95;;;;;;;;;;5094347;28;20047;-61
2022/12/28 07:36:00;;;;;;;19.80;11.63;;;;;;;;;;5093936;28;20054;-60
2022/12/28 07:38:26;;;;;;;19.45;13.45;;;;;;;;;;5092305;28;20179;-61
2022/12/28 07:40:52;;;;;;;15.70;10.18;;;;;;;;;;5071759;28;20122;-61
2022/12/28 07:43:18;;;;;;;20.83;13.60;;;;;;;;;;5075370;28;20056;-61
2022/12/28 07:45:44;;;;;;;21.63;14.32;;;;;;;;;;5092684;28;20051;-61
2022/12/28 07:48:10;;;;;;;12.73;9.70;;;;;;;;;;5102590;28;20411;-61
2022/12/28 07:50:36;;;;;;;17.77;10.75;;;;;;;;;;5113851;28;20108;-61
2022/12/28 07:53:02;;;;;;;17.00;12.98;;;;;;;;;;5084542;28;20076;-61
2022/12/28 07:55:30;;;;;;;13.45;10.02;;;;;;;;;;5094204;28;20043;-61
2022/12/28 07:57:56;;;;;;;9.63;8.18;;;;;;;;;;5070832;28;20058;-61
2022/12/28 08:00:22;;;;;;;19.65;13.95;;;;;;;;;;5094138;28;20040;-60
2022/12/28 08:02:48;;;;;;;16.35;12.93;;;;;;;;;;5093806;28;20508;-61
2022/12/28 08:05:14;;;;;;;17.05;12.90;;;;;;;;;;5075756;28;20048;-61
2022/12/28 08:07:41;;;;;;;19.45;13.80;;;;;;;;;;5074779;28;20052;-59
2022/12/28 08:10:07;;;;;;;13.57;9.25;;;;;;;;;;5105389;28;20051;-59
2022/12/28 08:12:33;;;;;;;20.17;12.60;;;;;;;;;;5093209;28;20171;-59
2022/12/28 08:15:00;;;;;;;14.02;9.77;;;;;;;;;;5073822;28;20036;-59
2022/12/28 08:17:26;;;;;;;16.10;10.52;;;;;;;;;;5075009;28;20115;-59
2022/12/28 08:19:54;;;;;;;18.20;11.25;;;;;;;;;;5074818;28;20040;-59
2022/12/28 08:22:20;;;;;;;17.45;12.13;;;;;;;;;;5106039;28;20043;-59
2022/12/28 08:24:46;;;;;;;18.67;14.25;;;;;;;;;;5113809;28;20051;-60
2022/12/28 08:27:12;;;;;;;18.58;11.30;;;;;;;;;;5094742;28;20044;-59
2022/12/28 08:29:38;;;;;;;18.48;11.27;;;;;;;;;;5092624;28;20574;-59
2022/12/28 08:32:04;;;;;;;16.52;11.95;;;;;;;;;;5093031;28;20091;-60
2022/12/28 08:34:30;;;;;;;16.83;11.75;;;;;;;;;;5092117;28;20086;-59
2022/12/28 08:36:56;;;;;;;20.20;13.60;;;;;;;;;;5079337;28;20048;-59
2022/12/28 08:39:22;;;;;;;20.52;14.25;;;;;;;;;;5093028;28;20043;-59
2022/12/28 08:41:48;;;;;;;20.27;13.45;;;;;;;;;;5075273;28;20070;-59
2022/12/28 08:44:14;;;;;;;13.63;8.95;;;;;;;;;;5092705;28;20105;-59
2022/12/28 08:46:41;;;;;;;20.90;12.90;;;;;;;;;;5085966;28;20052;-59
2022/12/28 08:49:07;;;;;;;15.07;10.07;;;;;;;;;;5092158;28;20051;-59
2022/12/28 08:51:34;;;;;;;16.13;12.18;;;;;;;;;;5107901;28;20055;-59
2022/12/28 08:54:00;;;;;;;12.60;7.72;;;;;;;;;;5113269;28;20086;-59
2022/12/28 08:56:27;;;;;;;17.13;12.02;;;;;;;;;;5102836;28;20071;-59
2022/12/28 08:58:54;;;;;;;16.30;11.10;;;;;;;;;;5092288;28;20050;-59
2022/12/28 09:01:21;;;;;;;13.23;10.02;;;;;;;;;;5091097;28;20040;-59
2022/12/28 09:03:49;;;;;;;19.00;12.43;;;;;;;;;;5092312;28;20052;-60
2022/12/28 09:06:16;;;;;;;16.42;10.82;;;;;;;;;;5091176;28;20126;-60
2022/12/28 09:08:42;;;;;;;15.68;11.10;;;;;;;;;;5073842;28;20484;-59
2022/12/28 09:11:15;;;;;;;13.57;8.93;;;;;;;;;;5091239;28;20062;-59
2022/12/28 09:13:41;;;;;;;16.20;10.82;;;;;;;;;;5092735;28;20051;-59
2022/12/28 09:16:09;;;;;;;17.55;9.95;;;;;;;;;;5091042;28;20048;-59
2022/12/28 09:18:35;;;;;;;13.88;9.52;;;;;;;;;;5074043;28;20054;-59
2022/12/28 09:21:12;;;;;;;15.45;11.18;;;;;;;;;;5092732;28;20048;-59
2022/12/28 09:23:39;;;;;;;17.75;12.48;;;;;;;;;;5092782;28;20051;-59
2022/12/28 09:26:09;;;;;;;10.32;7.13;;;;;;;;;;5092206;28;20477;-59
2022/12/28 09:28:35;;;;;;;16.70;10.80;;;;;;;;;;5091335;28;20577;-59
2022/12/28 09:31:01;;;;;;;16.05;11.48;;;;;;;;;;5069249;28;20063;-60
2022/12/28 09:36:12;;;;;;;17.80;12.65;;;;;;;;;;5091628;28;20051;-60
2022/12/28 09:38:38;;;;;;;14.25;8.88;;;;;;;;;;5073621;28;20052;-60
2022/12/28 09:41:12;;;;;;;21.20;10.38;;;;;;;;;;5057131;28;20051;-60
2022/12/28 09:43:40;;;;;;;19.27;11.02;;;;;;;;;;5090902;28;20411;-60
2022/12/28 09:46:06;;;;;;;19.67;12.63;;;;;;;;;;5091002;28;20056;-60
2022/12/28 09:48:33;;;;;;;21.30;13.25;;;;;;;;;;5092277;28;20090;-60
2022/12/28 09:50:59;;;;;;;19.20;13.05;;;;;;;;;;5091504;28;20058;-60
2022/12/28 09:53:37;;;;;;;15.38;10.23;;;;;;;;;;5073108;28;20392;-60
2022/12/28 09:56:20;;;;;;;15.82;11.05;;;;;;;;;;5091557;28;20137;-60
2022/12/28 09:58:48;;;;;;;15.70;10.27;;;;;;;;;;5090484;28;20047;-60
2022/12/28 10:01:16;;;;;;;14.55;9.27;;;;;;;;;;5090824;28;20050;-60
2022/12/28 10:03:43;;;;;;;14.93;8.93;;;;;;;;;;5099579;28;20039;-60
2022/12/28 10:06:16;;;;;;;14.43;9.95;;;;;;;;;;5092115;28;20078;-60
2022/12/28 10:08:48;;;;;;;15.50;10.55;;;;;;;;;;5091982;28;20044;-60
2022/12/28 10:11:16;;;;;;;14.55;9.25;;;;;;;;;;5092198;28;20044;-60
2022/12/28 10:13:42;;;;;;;18.08;10.10;;;;;;;;;;5079478;28;20130;-59
2022/12/28 10:16:15;;;;;;;16.17;10.15;;;;;;;;;;5072432;28;20043;-61
2022/12/28 10:18:41;;;;;;;17.08;10.50;;;;;;;;;;5090716;28;20127;-60
2022/12/28 10:21:07;;;;;;;11.95;8.57;;;;;;;;;;5091908;28;20047;-60
2022/12/28 10:23:35;;;;;;;18.95;11.43;;;;;;;;;;5091851;28;20059;-60
2022/12/28 10:26:03;;;;;;;17.42;10.10;;;;;;;;;;5094347;28;20055;-60
2022/12/28 10:28:32;;;;;;;18.00;10.65;;;;;;;;;;5091831;28;20105;-60
2022/12/28 10:31:08;;;;;;;15.50;9.93;;;;;;;;;;5071747;28;20048;-60
2022/12/28 10:33:42;;;;;;;13.60;7.35;;;;;;;;;;5091599;28;20058;-59
2022/12/28 10:36:12;;;;;;;18.15;9.27;;;;;;;;;;5112027;28;20047;-60
2022/12/28 10:38:41;;;;;;;10.88;7.22;;;;;;;;;;5090841;28;20101;-60
2022/12/28 10:41:09;;;;;;;12.82;8.32;;;;;;;;;;5057219;28;20051;-60
2022/12/28 10:43:37;;;;;;;19.27;8.40;;;;;;;;;;5067998;28;20048;-60
2022/12/28 10:46:05;;;;;;;12.20;7.28;;;;;;;;;;5094356;28;20056;-60
2022/12/28 10:48:33;;;;;;;11.02;7.32;;;;;;;;;;5094234;28;20417;-60
2022/12/28 10:51:13;;;;;;;11.73;6.80;;;;;;;;;;5094974;28;20055;-60
2022/12/28 10:53:39;;;;;;;11.88;6.75;;;;;;;;;;5094836;28;20400;-61
2022/12/28 10:56:14;;;;;;;11.57;7.25;;;;;;;;;;5075694;28;20043;-61
2022/12/28 10:58:44;;;;;;;10.23;6.80;;;;;;;;;;5072745;28;20047;-60
2022/12/28 11:01:14;;;;;;;12.25;8.02;;;;;;;;;;5094952;28;20044;-60
2022/12/28 11:03:41;;;;;;;10.57;7.00;;;;;;;;;;5094771;28;20062;-61
2022/12/28 11:06:15;;;;;;;12.18;7.32;;;;;;;;;;5098719;28;20036;-60
2022/12/28 11:08:42;;;;;;;12.52;8.35;;;;;;;;;;5076917;28;20048;-60
2022/12/28 11:11:19;;;;;;;16.50;11.55;;;;;;;;;;5095151;28;20051;-60
2022/12/28 11:13:47;;;;;;;12.00;6.63;;;;;;;;;;5056750;28;20060;-60
2022/12/28 11:16:14;;;;;;;15.05;8.38;;;;;;;;;;5084532;28;20399;-60
2022/12/28 11:18:40;;;;;;;16.15;8.77;;;;;;;;;;5094208;28;20044;-61
2022/12/28 11:21:09;;;;;;;15.00;8.77;;;;;;;;;;5094306;28;20078;-60
2022/12/28 11:23:36;;;;;;;13.23;8.70;;;;;;;;;;5074919;28;20048;-60
2022/12/28 11:26:02;;;;;;;15.50;9.93;;;;;;;;;;5093943;28;20048;-60
2022/12/28 11:28:28;;;;;;;15.77;9.00;;;;;;;;;;5094560;28;20052;-60
2022/12/28 11:30:55;;;;;;;16.15;8.85;;;;;;;;;;5094489;28;20412;-60
2022/12/28 11:33:40;;;;;;;12.73;9.48;;;;;;;;;;5074111;28;20048;-60
2022/12/28 11:36:06;;;;;;;11.30;7.68;;;;;;;;;;5094813;28;20132;-60
2022/12/28 11:38:37;;;;;;;13.57;8.77;;;;;;;;;;5084017;28;20096;-60
2022/12/28 11:41:03;;;;;;;16.23;9.82;;;;;;;;;;5075971;28;20044;-60
2022/12/28 11:43:29;;;;;;;11.43;7.28;;;;;;;;;;5093084;28;20396;-60
2022/12/28 11:46:02;;;;;;;10.02;7.07;;;;;;;;;;5095683;28;20052;-60
2022/12/28 11:48:39;;;;;;;10.73;6.15;;;;;;;;;;5092976;28;20046;-60
2022/12/28 11:51:05;;;;;;;13.73;7.85;;;;;;;;;;5094172;28;20504;-60
2022/12/28 11:53:32;;;;;;;10.60;7.25;;;;;;;;;;5073461;28;20040;-60
2022/12/28 11:55:58;;;;;;;12.02;7.88;;;;;;;;;;5092299;28;20515;-60
2022/12/28 11:58:34;;;;;;;13.55;9.30;;;;;;;;;;5093540;28;20051;-60
2022/12/28 12:01:03;;;;;;;15.85;9.75;;;;;;;;;;5094232;28;20047;-61
2022/12/28 12:03:58;;;;;;;13.35;8.68;;;;;;;;;;5086607;28;20122;-60
2022/12/28 12:06:42;;;;;;;14.43;8.85;;;;;;;;;;5093024;28;20043;-59
2022/12/28 12:09:20;;;;;;;14.50;8.65;;;;;;;;;;5094081;28;20044;-61
2022/12/28 12:11:57;;;;;;;18.30;9.23;;;;;;;;;;5092892;28;20496;-60
2022/12/28 12:14:28;;;;;;;16.65;8.82;;;;;;;;;;5075747;28;20047;-60
2022/12/28 12:17:03;;;;;;;11.95;7.50;;;;;;;;;;5092805;28;20048;-60
2022/12/28 12:19:30;;;;;;;15.88;7.82;;;;;;;;;;5094346;28;20059;-60
2022/12/28 12:22:00;;;;;;;12.10;7.20;;;;;;;;;;5093392;28;20135;-60
2022/12/28 12:24:31;;;;;;;11.57;6.80;;;;;;;;;;5093704;28;20075;-60
2022/12/28 12:27:02;;;;;;;10.02;7.40;;;;;;;;;;5093325;28;20051;-60
2022/12/28 12:29:28;;;;;;;7.28;5.00;;;;;;;;;;5094125;28;20127;-60
2022/12/28 12:32:00;;;;;;;9.10;5.25;;;;;;;;;;5074048;28;20175;-60
2022/12/28 12:34:34;;;;;;;11.75;5.97;;;;;;;;;;5093080;28;20519;-60
2022/12/28 12:37:15;;;;;;;9.18;5.10;;;;;;;;;;5093496;28;20048;-60
2022/12/28 12:39:47;;;;;;;10.23;4.70;;;;;;;;;;5092371;28;20526;-61
2022/12/28 12:42:32;;;;;;;7.60;4.90;;;;;;;;;;5091129;28;20040;-60
2022/12/28 12:45:08;;;;;;;9.07;4.88;;;;;;;;;;5090667;28;20055;-60
2022/12/28 12:47:46;;;;;;;6.65;4.57;;;;;;;;;;5093605;28;20051;-60
2022/12/28 12:50:27;;;;;;;6.80;4.45;;;;;;;;;;5092390;28;20067;-61
2022/12/28 12:53:05;;;;;;;6.93;5.20;;;;;;;;;;5072698;28;20059;-61
2022/12/28 12:55:43;;;;;;;6.45;4.97;;;;;;;;;;5072599;28;20048;-61
2022/12/28 12:58:18;;;;;;;7.28;4.50;;;;;;;;;;5072939;28;20044;-60
2022/12/28 13:00:47;;;;;;;7.93;3.83;;;;;;;;;;5091545;28;20146;-61
2022/12/28 13:03:26;;;;;;;4.47;3.17;;;;;;;;;;5067882;28;20076;-60
2022/12/28 13:05:53;;;;;;;4.82;3.80;;;;;;;;;;5088671;28;20044;-60
2022/12/28 13:08:21;;;;;;;6.90;3.90;;;;;;;;;;5071854;28;20040;-60
2022/12/28 13:10:47;;;;;;;4.35;3.35;;;;;;;;;;5092143;28;20047;-60
2022/12/28 13:13:28;;;;;;;6.68;4.57;;;;;;;;;;5093085;28;20460;-60
2022/12/28 13:15:57;;;;;;;6.43;4.03;;;;;;;;;;5092099;28;20442;-60
2022/12/28 13:18:23;;;;;;;7.03;3.42;;;;;;;;;;5075266;28;20117;-60
2022/12/28 13:20:53;;;;;;;6.07;3.70;;;;;;;;;;5092430;28;20056;-60
2022/12/28 13:23:21;;;;;;;4.95;3.65;;;;;;;;;;5087822;28;20048;-60
2022/12/28 13:25:48;;;;;;;2.85;2.25;;;;;;;;;;5066701;28;20127;-61
2022/12/28 13:28:26;;;;;;;4.78;2.47;;;;;;;;;;5083657;28;20036;-60
2022/12/28 13:30:57;;;;;;;5.65;2.15;;;;;;;;;;5087953;28;20051;-60
2022/12/28 13:33:24;;;;;;;5.60;2.63;;;;;;;;;;5082482;28;20496;-60
2022/12/28 13:35:50;;;;;;;7.95;4.30;;;;;;;;;;5073477;28;20043;-61
2022/12/28 13:38:17;;;;;;;6.35;2.70;;;;;;;;;;5092026;28;20044;-61
2022/12/28 13:40:51;;;;;;;3.42;2.28;;;;;;;;;;5085685;28;20048;-60
2022/12/28 13:43:29;;;;;;;6.05;2.53;;;;;;;;;;5080753;28;20048;-60
2022/12/28 13:45:59;;;;;;;3.33;1.90;;;;;;;;;;5091896;28;20832;-61
2022/12/28 13:48:26;;;;;;;6.00;2.58;;;;;;;;;;5088904;28;20531;-61
2022/12/28 13:50:52;;;;;;;3.90;2.10;;;;;;;;;;5070066;28;20044;-60
2022/12/28 13:53:23;;;;;;;5.70;3.35;;;;;;;;;;5083515;28;20052;-61
2022/12/28 13:55:52;;;;;;;6.60;2.70;;;;;;;;;;5053005;28;20101;-60
2022/12/28 13:58:21;;;;;;;4.93;2.80;;;;;;;;;;5073398;28;20091;-61
2022/12/28 14:00:48;;;;;;;3.65;2.30;;;;;;;;;;5092097;28;20104;-61
2022/12/28 14:03:15;;;;;;;5.20;3.03;;;;;;;;;;5089554;28;20133;-60
2022/12/28 14:05:43;;;;;;;7.00;2.55;;;;;;;;;;5074138;28;20094;-60
2022/12/28 14:08:10;;;;;;;6.63;2.90;;;;;;;;;;5091380;28;20055;-61
2022/12/28 14:10:36;;;;;;;7.15;2.80;;;;;;;;;;5091363;28;20079;-61
2022/12/28 14:13:03;;;;;;;8.60;3.47;;;;;;;;;;5090706;28;20043;-61
2022/12/28 14:15:29;;;;;;;6.18;3.30;;;;;;;;;;5070266;28;20048;-60
2022/12/28 14:17:56;;;;;;;9.07;3.50;;;;;;;;;;5073861;28;20101;-61
2022/12/28 14:20:22;;;;;;;7.20;3.42;;;;;;;;;;5095438;28;20093;-60
2022/12/28 14:22:48;;;;;;;11.98;3.88;;;;;;;;;;5094470;28;20083;-60
2022/12/28 14:25:16;;;;;;;9.55;4.25;;;;;;;;;;5088385;28;20055;-60
2022/12/28 14:27:54;;;;;;;7.93;3.38;;;;;;;;;;5081050;28;20043;-61
2022/12/28 14:30:29;;;;;;;8.10;3.92;;;;;;;;;;5095401;28;20044;-61
2022/12/28 14:32:56;;;;;;;9.20;4.22;;;;;;;;;;5091209;28;20044;-61
2022/12/28 14:35:23;;;;;;;8.25;4.43;;;;;;;;;;5095024;28;20047;-61
2022/12/28 14:37:52;;;;;;;9.43;4.05;;;;;;;;;;5094640;28;20040;-60
2022/12/28 14:40:24;;;;;;;8.35;4.47;;;;;;;;;;5075753;28;20093;-60
2022/12/28 14:42:51;;;;;;;8.52;4.90;;;;;;;;;;5076181;28;20052;-61
2022/12/28 14:45:21;;;;;;;21.00;8.60;;;;;;;;;;5094814;28;20043;-60
2022/12/28 14:47:47;;;;;;;7.00;5.25;;;;;;;;;;5094661;28;20075;-61
2022/12/28 14:50:26;;;;;;;11.38;5.47;;;;;;;;;;5095018;28;20043;-60
2022/12/28 14:53:06;;;;;;;9.38;5.85;;;;;;;;;;5077200;28;20043;-60
2022/12/28 14:55:59;;;;;;;11.18;6.22;;;;;;;;;;5095697;28;20036;-61
2022/12/28 14:58:46;;;;;;;8.80;6.00;;;;;;;;;;5070370;28;20740;-61
2022/12/28 15:01:12;;;;;;;10.60;6.15;;;;;;;;;;5057398;28;20056;-61
2022/12/28 15:04:07;;;;;;;11.82;5.57;;;;;;;;;;5075136;28;20051;-60
2022/12/28 15:06:33;;;;;;;14.10;5.20;;;;;;;;;;5037643;28;20060;-61